Time;durP1;ratioP1;P1;durP2;ratioP2;P2;SDS_P1;SDS_P2;PMS_P1;PMS_P2;Temp;Humidity;BMP_temperature;BMP_pressure;BME280_temperature;BME280_humidity;BME280_pressure;Samples;Min_cycle;Max_cycle;Signal;HPM_P1;HPM_P2
2024/04/24 00:01:44;;;;;;;15.33;13.93;;;3.30;99.90;;;;;;5228696;27;20249;-77
2024/04/24 00:04:12;;;;;;;14.57;13.20;;;3.30;99.90;;;;;;5233333;27;20362;-77
2024/04/24 00:06:41;;;;;;;15.17;13.77;;;3.30;99.90;;;;;;5237652;27;20618;-77
2024/04/24 00:09:12;;;;;;;14.53;13.23;;;3.20;99.90;;;;;;5231851;27;20777;-77
2024/04/24 00:11:40;;;;;;;15.30;13.90;;;3.20;99.90;;;;;;5242856;27;20266;-77
2024/04/24 00:14:09;;;;;;;15.60;14.17;;;3.20;99.90;;;;;;5226691;27;20262;-77
2024/04/24 00:16:38;;;;;;;15.10;13.70;;;3.00;99.90;;;;;;5229138;27;20242;-77
2024/04/24 00:19:06;;;;;;;15.43;13.93;;;2.90;99.90;;;;;;5237509;27;20564;-76
2024/04/24 00:21:34;;;;;;;15.57;14.20;;;2.90;99.90;;;;;;5242005;27;20603;-77
2024/04/24 00:24:03;;;;;;;15.20;13.80;;;2.80;99.90;;;;;;5234458;27;21808;-76
2024/04/24 00:26:35;;;;;;;14.97;13.57;;;2.70;99.90;;;;;;5242496;27;20276;-77
2024/04/24 00:29:04;;;;;;;14.70;13.30;;;2.70;99.90;;;;;;5230869;27;20625;-76
2024/04/24 00:31:32;;;;;;;14.57;13.27;;;2.80;99.90;;;;;;5240788;27;20250;-77
2024/04/24 00:34:01;;;;;;;14.77;13.47;;;2.80;99.90;;;;;;5242636;27;20287;-77
2024/04/24 00:36:29;;;;;;;15.40;13.87;;;2.80;99.90;;;;;;5226784;27;20363;-76
2024/04/24 00:38:58;;;;;;;15.13;13.83;;;2.80;99.90;;;;;;5241490;27;20792;-77
2024/04/24 00:41:26;;;;;;;14.30;13.00;;;2.80;99.90;;;;;;5238338;27;20755;-76
2024/04/24 00:43:57;;;;;;;13.87;12.77;;;2.70;99.90;;;;;;5225189;27;20289;-76
2024/04/24 00:46:30;;;;;;;14.30;13.10;;;2.70;99.90;;;;;;5226796;27;20238;-77
2024/04/24 00:48:59;;;;;;;14.57;13.37;;;2.70;99.90;;;;;;5234018;27;20382;-76
2024/04/24 00:51:29;;;;;;;14.67;13.37;;;2.70;99.90;;;;;;5237909;27;20771;-76
2024/04/24 00:53:58;;;;;;;13.47;12.27;;;2.70;99.90;;;;;;5227356;27;20241;-77
2024/04/24 00:56:27;;;;;;;13.80;12.60;;;2.70;99.90;;;;;;5235590;27;20370;-76
2024/04/24 00:58:58;;;;;;;14.37;13.00;;;2.60;99.90;;;;;;5241167;27;20246;-76
2024/04/24 01:01:27;;;;;;;13.90;12.60;;;2.60;99.90;;;;;;5240122;27;20707;-77
2024/04/24 01:03:55;;;;;;;13.50;12.40;;;2.50;99.90;;;;;;5238539;27;20290;-76
2024/04/24 01:06:24;;;;;;;12.70;11.60;;;2.40;99.90;;;;;;5241434;27;20344;-76
2024/04/24 01:08:52;;;;;;;14.20;12.83;;;2.40;99.90;;;;;;5225194;27;20249;-77
2024/04/24 01:11:21;;;;;;;13.67;12.53;;;2.30;99.90;;;;;;5236594;27;20385;-77
2024/04/24 01:13:49;;;;;;;15.47;14.17;;;2.30;99.90;;;;;;5224026;27;20942;-77
2024/04/24 01:16:26;;;;;;;14.97;13.57;;;2.30;99.90;;;;;;5237846;27;20238;-77
2024/04/24 01:18:57;;;;;;;15.13;13.80;;;2.30;99.90;;;;;;5241265;27;20689;-77
2024/04/24 01:21:35;;;;;;;14.27;12.87;;;2.30;99.90;;;;;;5239754;27;20261;-77
2024/04/24 01:24:11;;;;;;;14.50;13.30;;;2.30;99.90;;;;;;5239994;27;20740;-77
2024/04/24 01:26:44;;;;;;;14.70;13.47;;;2.30;99.90;;;;;;5241371;27;20238;-76
2024/04/24 01:29:12;;;;;;;15.70;14.30;;;2.30;99.90;;;;;;5238123;27;20238;-76
2024/04/24 01:31:41;;;;;;;14.90;13.60;;;2.40;99.90;;;;;;5238882;27;20287;-77
2024/04/24 01:34:10;;;;;;;14.43;13.10;;;2.40;99.90;;;;;;5229558;27;20276;-77
2024/04/24 01:36:38;;;;;;;14.10;12.97;;;2.40;99.90;;;;;;5230388;27;20309;-76
2024/04/24 01:39:07;;;;;;;14.60;13.30;;;2.50;99.90;;;;;;5240648;27;20237;-77
2024/04/24 01:41:35;;;;;;;14.07;12.67;;;2.50;99.90;;;;;;5240765;27;20757;-76
2024/04/24 01:44:07;;;;;;;14.20;12.97;;;2.50;99.90;;;;;;5215044;27;20289;-77
2024/04/24 01:46:35;;;;;;;13.60;12.50;;;2.50;99.90;;;;;;5220867;27;20263;-77
2024/04/24 01:49:04;;;;;;;14.20;13.00;;;2.50;99.90;;;;;;5231318;27;20272;-77
2024/04/24 01:51:29;;;;;;;14.90;13.60;;;2.50;99.90;;;;;;5238018;27;20285;-76
2024/04/24 01:53:58;;;;;;;14.43;13.23;;;2.50;99.90;;;;;;5241279;27;20293;-76
2024/04/24 01:56:27;;;;;;;14.53;13.13;;;2.60;99.90;;;;;;5236306;27;20288;-76
2024/04/24 01:58:52;;;;;;;14.37;12.97;;;2.60;99.90;;;;;;5237916;27;20284;-77
2024/04/24 02:01:24;;;;;;;14.47;13.17;;;2.60;99.90;;;;;;5235131;27;20238;-77
2024/04/24 02:03:52;;;;;;;14.50;13.10;;;2.60;99.90;;;;;;5239281;27;20763;-77
2024/04/24 02:06:20;;;;;;;14.00;12.87;;;2.70;99.90;;;;;;5236379;27;20233;-76
2024/04/24 02:08:49;;;;;;;14.37;13.17;;;2.80;99.90;;;;;;5240440;27;20234;-77
2024/04/24 02:11:19;;;;;;;13.20;12.13;;;2.80;99.90;;;;;;5244442;27;20288;-77
2024/04/24 02:13:48;;;;;;;13.97;12.67;;;2.70;99.90;;;;;;5230461;27;20586;-77
2024/04/24 02:16:16;;;;;;;14.93;13.50;;;2.70;99.90;;;;;;5236360;27;20273;-76
2024/04/24 02:18:47;;;;;;;15.07;13.67;;;2.70;99.90;;;;;;5235472;27;20602;-77
2024/04/24 02:21:16;;;;;;;14.60;13.30;;;2.70;99.90;;;;;;5227573;27;20301;-77
2024/04/24 02:23:44;;;;;;;14.70;13.30;;;2.70;99.90;;;;;;5238752;27;20352;-77
2024/04/24 02:26:10;;;;;;;13.10;11.90;;;2.70;99.90;;;;;;5242680;27;20253;-77
2024/04/24 02:28:39;;;;;;;14.03;12.73;;;2.70;99.90;;;;;;5243072;27;20352;-76
2024/04/24 02:31:07;;;;;;;13.93;12.73;;;2.70;99.90;;;;;;5229781;27;20241;-76
2024/04/24 02:33:38;;;;;;;14.57;13.13;;;2.80;99.90;;;;;;5237316;27;20242;-76
2024/04/24 02:36:09;;;;;;;14.00;12.60;;;2.90;99.90;;;;;;5228696;27;20241;-77
2024/04/24 02:38:38;;;;;;;14.17;12.87;;;2.90;99.90;;;;;;5241318;27;20366;-77
2024/04/24 02:41:06;;;;;;;13.90;12.60;;;2.90;99.90;;;;;;5240159;27;20279;-77
2024/04/24 02:43:35;;;;;;;13.80;12.60;;;2.90;99.90;;;;;;5228664;27;20301;-76
2024/04/24 02:46:03;;;;;;;13.77;12.67;;;2.90;99.90;;;;;;5236552;27;20249;-76
2024/04/24 02:48:32;;;;;;;12.97;11.87;;;3.00;99.90;;;;;;5230022;27;20246;-76
2024/04/24 02:51:00;;;;;;;13.40;12.20;;;3.00;99.90;;;;;;5239932;27;20250;-77
2024/04/24 02:53:31;;;;;;;14.30;13.10;;;3.00;99.90;;;;;;5240426;27;20292;-80
2024/04/24 02:56:00;;;;;;;15.80;14.33;;;3.10;99.90;;;;;;5238081;27;20246;-77
2024/04/24 02:58:28;;;;;;;14.00;12.70;;;3.10;99.90;;;;;;5236727;27;20721;-77
2024/04/24 03:00:56;;;;;;;14.33;13.03;;;3.10;99.90;;;;;;5229749;27;20246;-77
2024/04/24 03:03:25;;;;;;;14.63;13.13;;;3.10;99.90;;;;;;5235192;27;20250;-78
2024/04/24 03:05:53;;;;;;;15.63;14.07;;;3.10;99.90;;;;;;5247813;27;20242;-77
2024/04/24 03:08:22;;;;;;;15.03;13.63;;;3.20;99.90;;;;;;5231556;27;20730;-77
2024/04/24 03:10:53;;;;;;;13.63;12.43;;;3.20;99.90;;;;;;5234112;27;20294;-77
2024/04/24 03:13:22;;;;;;;14.00;12.90;;;3.30;99.90;;;;;;5247220;27;20254;-77
2024/04/24 03:15:50;;;;;;;13.40;12.30;;;3.20;99.90;;;;;;5242121;27;20241;-76
2024/04/24 03:18:19;;;;;;;13.63;12.53;;;3.10;99.90;;;;;;5244232;27;20272;-78
2024/04/24 03:20:47;;;;;;;13.20;12.10;;;3.00;99.90;;;;;;5247073;27;20246;-77
2024/04/24 03:23:16;;;;;;;14.27;13.07;;;3.00;99.90;;;;;;5238859;27;20378;-76
2024/04/24 03:25:44;;;;;;;13.03;12.03;;;3.00;99.90;;;;;;5235361;27;20336;-78
2024/04/24 03:28:15;;;;;;;13.73;12.63;;;3.00;99.90;;;;;;5247192;27;20289;-78
2024/04/24 03:30:44;;;;;;;13.63;12.43;;;3.10;99.90;;;;;;5236236;27;20339;-78
2024/04/24 03:33:12;;;;;;;13.27;12.17;;;3.10;99.90;;;;;;5242695;27;20254;-78
2024/04/24 03:35:41;;;;;;;12.90;11.90;;;3.10;99.90;;;;;;5246047;27;20336;-77
2024/04/24 03:38:09;;;;;;;13.00;12.00;;;3.10;99.90;;;;;;5233649;27;20662;-77
2024/04/24 03:40:39;;;;;;;14.00;12.90;;;3.20;99.90;;;;;;5250170;27;20250;-77
2024/04/24 03:43:07;;;;;;;13.73;12.53;;;3.20;99.90;;;;;;5228527;27;20294;-78
2024/04/24 03:45:38;;;;;;;13.47;12.33;;;3.30;99.90;;;;;;5219453;27;20293;-76
2024/04/24 03:48:08;;;;;;;14.03;12.83;;;3.30;99.90;;;;;;5240513;27;20791;-76
2024/04/24 03:50:36;;;;;;;14.27;13.07;;;3.30;99.90;;;;;;5236598;27;20520;-76
2024/04/24 03:53:05;;;;;;;14.13;12.83;;;3.30;99.90;;;;;;5237489;27;20284;-77
2024/04/24 03:55:33;;;;;;;13.70;12.70;;;3.30;99.90;;;;;;5233319;27;20287;-76
2024/04/24 03:58:02;;;;;;;14.57;13.37;;;3.30;99.90;;;;;;5236530;27;20252;-76
2024/04/24 04:00:27;;;;;;;14.70;13.40;;;3.30;99.90;;;;;;5233979;27;20289;-76
2024/04/24 04:02:59;;;;;;;15.90;14.50;;;3.30;99.90;;;;;;5224123;27;20247;-76
2024/04/24 04:05:27;;;;;;;14.57;13.37;;;3.30;99.90;;;;;;5220313;27;20831;-76
2024/04/24 04:07:59;;;;;;;14.13;12.93;;;3.30;99.90;;;;;;5234642;27;20285;-76
2024/04/24 04:10:28;;;;;;;14.80;13.50;;;3.30;99.90;;;;;;5240480;27;20242;-76
2024/04/24 04:12:56;;;;;;;14.83;13.37;;;3.30;99.90;;;;;;5240968;27;20242;-77
2024/04/24 04:15:25;;;;;;;13.20;12.20;;;3.30;99.90;;;;;;5238464;27;20242;-76
2024/04/24 04:17:53;;;;;;;14.20;12.97;;;3.30;99.90;;;;;;5241888;27;20238;-76
2024/04/24 04:20:24;;;;;;;13.73;12.63;;;3.30;99.90;;;;;;5220908;27;20245;-77
2024/04/24 04:22:53;;;;;;;13.53;12.43;;;3.30;99.90;;;;;;5229990;27;20249;-76
2024/04/24 04:25:21;;;;;;;14.13;12.83;;;3.40;99.90;;;;;;5239844;27;20246;-77
2024/04/24 04:27:50;;;;;;;13.37;12.20;;;3.40;99.90;;;;;;5213742;27;20599;-77
2024/04/24 04:30:18;;;;;;;13.30;12.27;;;3.40;99.90;;;;;;5218097;27;20736;-77
2024/04/24 04:32:47;;;;;;;13.70;12.60;;;3.40;99.90;;;;;;5242580;27;20639;-76
2024/04/24 04:35:15;;;;;;;13.73;12.53;;;3.40;99.90;;;;;;5228067;27;20289;-76
2024/04/24 04:37:46;;;;;;;12.93;11.93;;;3.40;99.90;;;;;;5217310;27;20280;-76
2024/04/24 04:40:15;;;;;;;15.53;14.03;;;3.40;99.90;;;;;;5226526;27;20253;-76
2024/04/24 04:42:43;;;;;;;14.80;13.50;;;3.50;99.90;;;;;;5239736;27;20247;-76
2024/04/24 04:45:12;;;;;;;14.13;13.03;;;3.50;99.90;;;;;;5225134;27;20743;-77
2024/04/24 04:47:40;;;;;;;14.67;13.47;;;3.50;99.90;;;;;;5231975;27;20237;-77
2024/04/24 04:50:09;;;;;;;15.07;13.80;;;3.50;99.90;;;;;;5238740;27;20623;-77
2024/04/24 04:52:37;;;;;;;14.90;13.50;;;3.50;99.90;;;;;;5235745;27;20243;-76
2024/04/24 04:55:09;;;;;;;14.30;13.10;;;3.60;99.90;;;;;;5239370;27;20241;-76
2024/04/24 04:57:37;;;;;;;14.87;13.57;;;3.60;99.90;;;;;;5233931;27;20750;-77
2024/04/24 05:00:07;;;;;;;14.67;13.47;;;3.70;99.90;;;;;;5237615;27;20237;-77
2024/04/24 05:02:37;;;;;;;14.23;13.03;;;3.80;99.90;;;;;;5279141;21;20280;-78
2024/04/24 05:05:06;;;;;;;14.30;13.00;;;3.80;99.90;;;;;;5270672;27;20244;-78
2024/04/24 05:07:35;;;;;;;15.60;14.20;;;3.90;99.90;;;;;;5276463;27;21064;-78
2024/04/24 05:10:03;;;;;;;15.40;14.10;;;4.00;99.90;;;;;;5290309;27;20241;-78
2024/04/24 05:12:35;;;;;;;14.93;13.63;;;4.10;99.90;;;;;;5278247;27;20846;-79
2024/04/24 05:15:02;;;;;;;15.73;14.23;;;4.20;99.90;;;;;;5274277;27;20256;-79
2024/04/24 05:17:31;;;;;;;14.27;13.07;;;4.30;99.90;;;;;;5274388;27;20288;-79
2024/04/24 05:20:00;;;;;;;14.07;12.77;;;4.40;99.90;;;;;;5275217;27;20233;-78
2024/04/24 05:22:33;;;;;;;13.03;11.93;;;4.50;99.90;;;;;;5276482;27;20271;-79
2024/04/24 05:25:02;;;;;;;13.90;12.60;;;4.50;99.90;;;;;;5277376;27;20283;-79
2024/04/24 05:30:18;;;;;;;13.67;12.57;;;4.70;99.90;;;;;;5274356;27;20256;-79
2024/04/24 05:32:49;;;;;;;13.80;12.60;;;4.70;99.90;;;;;;5276334;27;20242;-79
2024/04/24 05:35:18;;;;;;;14.40;13.30;;;4.70;99.90;;;;;;5275027;27;20287;-79
2024/04/24 05:37:47;;;;;;;14.27;13.17;;;4.80;99.90;;;;;;5274191;27;20288;-79
2024/04/24 05:40:15;;;;;;;13.90;12.80;;;4.80;99.90;;;;;;5277879;27;20600;-79
2024/04/24 05:42:44;;;;;;;14.47;13.27;;;4.90;99.90;;;;;;5278114;27;20377;-79
2024/04/24 05:45:13;;;;;;;14.33;13.23;;;5.10;99.90;;;;;;5278779;27;20250;-79
2024/04/24 05:47:45;;;;;;;14.50;13.30;;;5.20;99.90;;;;;;5277192;27;20298;-79
2024/04/24 05:50:14;;;;;;;14.50;13.30;;;5.40;99.90;;;;;;5278948;27;20335;-79
2024/04/24 05:52:43;;;;;;;14.03;12.93;;;5.50;99.90;;;;;;5277318;27;20269;-79
2024/04/24 05:55:12;;;;;;;13.97;12.87;;;5.50;99.90;;;;;;5278051;27;20255;-79
2024/04/24 05:57:40;;;;;;;13.90;12.63;;;5.60;99.90;;;;;;5280554;27;20345;-79
2024/04/24 06:00:10;;;;;;;13.87;12.77;;;5.60;99.90;;;;;;5276520;27;20245;-78
2024/04/24 06:02:43;;;;;;;13.63;12.57;;;5.70;99.90;;;;;;5277116;27;20796;-79
2024/04/24 06:05:12;;;;;;;13.73;12.67;;;5.70;99.90;;;;;;5277647;27;20247;-79
2024/04/24 06:07:42;;;;;;;14.23;12.73;;;5.80;99.90;;;;;;5277175;27;20297;-78
2024/04/24 06:10:12;;;;;;;12.57;11.63;;;6.00;99.90;;;;;;5262433;27;20240;-79
2024/04/24 06:12:43;;;;;;;13.13;12.13;;;6.10;99.90;;;;;;5277756;27;20255;-78
2024/04/24 06:15:12;;;;;;;14.33;13.13;;;6.30;99.90;;;;;;5277713;27;20278;-78
2024/04/24 06:17:44;;;;;;;13.37;12.37;;;6.40;99.90;;;;;;5278044;27;20252;-78
2024/04/24 06:20:15;;;;;;;13.60;12.43;;;6.70;99.90;;;;;;5277474;27;20295;-79
2024/04/24 06:22:46;;;;;;;12.70;11.60;;;7.00;99.90;;;;;;5279613;27;20249;-78
2024/04/24 06:25:15;;;;;;;13.03;12.03;;;7.20;99.90;;;;;;5278970;27;20287;-79
2024/04/24 06:27:44;;;;;;;12.43;11.50;;;7.30;99.90;;;;;;5295920;27;20801;-79
2024/04/24 06:30:13;;;;;;;12.57;11.67;;;7.40;99.90;;;;;;5276399;27;20307;-79
2024/04/24 06:32:47;;;;;;;12.67;11.60;;;7.50;99.90;;;;;;5294753;27;20821;-79
2024/04/24 06:35:19;;;;;;;13.57;12.30;;;7.60;99.90;;;;;;5277110;27;20244;-79
2024/04/24 06:37:46;;;;;;;13.50;12.40;;;7.70;99.90;;;;;;5291185;27;20252;-79
2024/04/24 06:40:15;;;;;;;12.60;11.43;;;7.90;99.90;;;;;;5276297;27;20259;-79
2024/04/24 06:42:44;;;;;;;12.23;11.30;;;8.10;99.90;;;;;;5277006;27;20245;-79
2024/04/24 06:45:12;;;;;;;12.83;11.47;;;8.20;99.90;;;;;;5277081;27;20244;-79
2024/04/24 06:47:41;;;;;;;7.90;5.70;;;8.30;99.90;;;;;;5284340;27;20240;-79
2024/04/24 06:50:13;;;;;;;6.13;5.40;;;8.40;99.90;;;;;;5275929;27;20245;-79
2024/04/24 06:52:49;;;;;;;7.40;6.70;;;8.60;99.90;;;;;;5277385;27;20303;-79
2024/04/24 06:55:21;;;;;;;13.23;12.17;;;8.70;99.90;;;;;;5277449;27;20240;-79
2024/04/24 06:57:49;;;;;;;12.87;11.53;;;8.90;99.90;;;;;;5278507;27;20439;-79
2024/04/24 07:00:18;;;;;;;11.93;11.13;;;8.90;99.90;;;;;;5276132;27;20280;-79
2024/04/24 07:02:47;;;;;;;12.50;11.60;;;8.90;99.90;;;;;;5276697;27;20249;-79
2024/04/24 07:05:23;;;;;;;12.27;11.27;;;8.70;99.90;;;;;;5276818;27;20257;-79
2024/04/24 07:07:51;;;;;;;12.07;11.20;;;8.60;99.90;;;;;;5276231;27;20292;-79
2024/04/24 07:10:20;;;;;;;11.57;10.67;;;8.70;99.90;;;;;;5276767;27;20244;-80
2024/04/24 07:12:57;;;;;;;7.77;7.00;;;8.90;99.90;;;;;;5276782;27;20277;-81
2024/04/24 07:15:29;;;;;;;9.07;8.00;;;9.20;99.90;;;;;;5279007;27;20244;-81
2024/04/24 07:17:58;;;;;;;11.17;10.37;;;9.50;99.90;;;;;;5276847;27;20280;-82
2024/04/24 07:20:29;;;;;;;11.03;10.23;;;9.90;99.90;;;;;;5275105;27;20271;-81
2024/04/24 07:22:58;;;;;;;11.47;10.47;;;10.50;99.90;;;;;;5272009;27;20250;-81
2024/04/24 07:25:27;;;;;;;10.13;9.33;;;11.20;99.90;;;;;;5271398;27;20245;-81
2024/04/24 07:27:56;;;;;;;8.07;7.27;;;12.00;99.90;;;;;;5275364;27;20245;-82
2024/04/24 07:30:25;;;;;;;11.20;10.30;;;12.80;99.90;;;;;;5276270;27;20256;-82
2024/04/24 07:32:54;;;;;;;10.70;9.80;;;13.30;99.90;;;;;;5276586;27;20252;-81
2024/04/24 07:35:25;;;;;;;9.90;9.00;;;13.30;99.90;;;;;;5262379;27;20318;-82
2024/04/24 07:37:59;;;;;;;10.97;10.17;;;13.00;99.90;;;;;;5283179;27;20360;-81
2024/04/24 07:40:28;;;;;;;7.97;6.87;;;12.70;99.90;;;;;;5277800;27;20244;-79
2024/04/24 07:42:57;;;;;;;9.10;8.20;;;12.40;99.90;;;;;;5275411;27;20744;-84
2024/04/24 07:45:27;;;;;;;10.37;9.33;;;12.20;99.90;;;;;;5277249;27;20245;-85
2024/04/24 07:47:56;;;;;;;10.80;9.90;;;11.90;99.90;;;;;;5277230;27;20248;-85
2024/04/24 07:50:27;;;;;;;10.97;10.07;;;11.60;99.90;;;;;;5277646;27;20241;-85
2024/04/24 07:52:58;;;;;;;12.40;11.30;;;11.40;99.90;;;;;;5293360;27;20631;-82
2024/04/24 07:55:27;;;;;;;12.87;11.83;;;11.30;99.90;;;;;;5273401;27;20272;-84
2024/04/24 07:57:57;;;;;;;11.37;10.37;;;11.10;99.90;;;;;;5278136;27;20279;-85
2024/04/24 08:00:27;;;;;;;11.80;10.87;;;10.90;99.90;;;;;;5246886;27;20292;-82
2024/04/24 08:02:56;;;;;;;12.80;11.70;;;10.60;99.90;;;;;;5254249;27;20248;-82
2024/04/24 08:05:27;;;;;;;11.90;10.97;;;10.40;99.90;;;;;;5276861;27;20301;-83
2024/04/24 08:07:58;;;;;;;12.80;11.70;;;10.20;99.90;;;;;;5277529;27;20320;-85
2024/04/24 08:10:27;;;;;;;13.10;11.90;;;9.90;99.90;;;;;;5278267;27;20248;-82
2024/04/24 08:12:56;;;;;;;11.97;10.97;;;9.60;99.90;;;;;;5275387;27;20290;-82
2024/04/24 08:15:29;;;;;;;12.10;11.00;;;9.40;99.90;;;;;;5273450;27;20768;-85
2024/04/24 08:17:58;;;;;;;12.23;11.23;;;9.10;99.90;;;;;;5276605;27;20283;-84
2024/04/24 08:20:29;;;;;;;11.90;10.80;;;9.00;99.90;;;;;;5302062;27;20246;-83
2024/04/24 08:23:01;;;;;;;13.27;11.97;;;8.90;99.90;;;;;;5276555;27;20657;-84
2024/04/24 08:25:30;;;;;;;12.60;11.50;;;8.90;99.90;;;;;;5276727;27;20298;-84
2024/04/24 08:27:59;;;;;;;13.50;12.30;;;8.90;99.90;;;;;;5276125;27;20257;-84
2024/04/24 08:30:30;;;;;;;13.63;12.30;;;9.10;99.90;;;;;;5276358;27;20284;-84
2024/04/24 08:33:01;;;;;;;12.33;11.33;;;9.20;99.90;;;;;;5276065;27;20249;-84
2024/04/24 08:35:34;;;;;;;13.23;12.10;;;9.40;99.90;;;;;;5276831;27;20249;-84
2024/04/24 08:38:06;;;;;;;12.20;11.30;;;9.50;99.90;;;;;;5276062;27;20748;-85
2024/04/24 08:40:38;;;;;;;12.43;11.20;;;9.70;99.90;;;;;;5276279;27;20783;-85
2024/04/24 08:43:09;;;;;;;11.67;10.57;;;9.70;99.90;;;;;;5276078;27;20355;-84
2024/04/24 08:45:38;;;;;;;12.53;11.43;;;9.90;99.90;;;;;;5276587;27;20326;-84
2024/04/24 08:48:08;;;;;;;11.80;10.60;;;9.90;99.90;;;;;;5276099;27;20247;-84
2024/04/24 08:50:39;;;;;;;10.40;9.60;;;10.00;99.90;;;;;;5264298;27;20273;-85
2024/04/24 08:53:15;;;;;;;10.63;9.80;;;10.00;99.90;;;;;;5269866;27;20250;-84
2024/04/24 08:55:48;;;;;;;11.10;10.30;;;10.10;99.90;;;;;;5260379;27;20299;-85
2024/04/24 08:58:23;;;;;;;12.53;11.33;;;10.10;99.90;;;;;;5255419;27;20890;-85
2024/04/24 09:00:54;;;;;;;12.30;11.30;;;10.00;99.90;;;;;;5263101;27;20242;-84
2024/04/24 09:03:29;;;;;;;11.93;10.93;;;9.90;99.90;;;;;;5270868;27;20251;-84
2024/04/24 09:06:01;;;;;;;11.37;10.37;;;10.00;99.90;;;;;;5275884;27;20243;-84
2024/04/24 09:08:33;;;;;;;12.13;11.00;;;9.90;99.90;;;;;;5275085;27;20343;-84
2024/04/24 09:11:02;;;;;;;11.93;11.03;;;9.80;99.90;;;;;;5276417;27;20286;-84
2024/04/24 09:13:31;;;;;;;11.53;10.60;;;9.60;99.90;;;;;;5274562;27;20293;-85
2024/04/24 09:16:02;;;;;;;11.30;10.30;;;9.50;99.90;;;;;;5275978;27;20285;-85
2024/04/24 09:18:31;;;;;;;11.30;10.30;;;9.30;99.90;;;;;;5275196;27;20297;-84
2024/04/24 09:21:01;;;;;;;10.83;10.00;;;9.30;99.90;;;;;;5277584;27;20238;-84
2024/04/24 09:23:36;;;;;;;11.47;10.43;;;9.30;99.90;;;;;;5276134;27;20316;-85
2024/04/24 09:26:05;;;;;;;11.30;10.40;;;9.50;99.90;;;;;;5278011;27;20256;-85
2024/04/24 09:28:34;;;;;;;12.00;11.00;;;9.50;99.90;;;;;;5278010;27;20246;-84
2024/04/24 09:31:06;;;;;;;12.50;11.50;;;9.60;99.90;;;;;;5292772;27;20249;-85
2024/04/24 09:33:34;;;;;;;12.23;11.33;;;9.70;99.90;;;;;;5277089;27;20255;-79
2024/04/24 09:36:04;;;;;;;11.87;10.97;;;9.90;99.90;;;;;;5283286;27;20246;-80
2024/04/24 09:38:35;;;;;;;11.43;10.43;;;10.10;99.90;;;;;;5277322;27;20411;-80
2024/04/24 09:41:05;;;;;;;12.37;11.27;;;10.10;99.90;;;;;;5274547;27;20339;-79
2024/04/24 09:43:34;;;;;;;12.10;11.10;;;9.90;99.90;;;;;;5275692;27;20254;-80
2024/04/24 09:46:04;;;;;;;12.63;11.60;;;9.60;99.90;;;;;;5271250;27;20730;-80
2024/04/24 09:48:33;;;;;;;12.63;11.63;;;9.20;99.90;;;;;;5275526;27;20273;-79
2024/04/24 09:51:02;;;;;;;13.80;12.50;;;8.90;99.90;;;;;;5293702;27;20837;-79
2024/04/24 09:53:31;;;;;;;13.60;12.50;;;8.50;99.90;;;;;;5273658;27;20775;-79
2024/04/24 09:56:10;;;;;;;13.00;11.93;;;8.20;99.90;;;;;;5274806;27;20244;-79
2024/04/24 09:58:41;;;;;;;13.00;12.00;;;8.10;99.90;;;;;;5274913;27;20629;-79
2024/04/24 10:01:10;;;;;;;12.57;11.60;;;8.10;99.90;;;;;;5285172;27;20244;-80
2024/04/24 10:03:42;;;;;;;12.80;11.83;;;8.20;99.90;;;;;;5273619;27;20244;-80
2024/04/24 10:06:14;;;;;;;12.50;11.50;;;8.30;99.90;;;;;;5279444;27;20252;-80
2024/04/24 10:08:50;;;;;;;12.53;11.53;;;8.50;99.90;;;;;;5274961;27;20245;-80
2024/04/24 10:11:28;;;;;;;12.90;11.80;;;8.80;99.90;;;;;;5275377;27;20302;-78
2024/04/24 10:14:00;;;;;;;12.70;11.73;;;9.10;99.90;;;;;;5261907;27;20576;-78
2024/04/24 10:16:32;;;;;;;12.27;11.17;;;9.40;99.90;;;;;;5275119;27;20253;-78
2024/04/24 10:19:03;;;;;;;12.10;11.00;;;9.40;99.90;;;;;;5273590;27;20246;-79
2024/04/24 10:21:33;;;;;;;11.30;10.40;;;9.40;99.90;;;;;;5273551;27;20292;-79
2024/04/24 10:24:04;;;;;;;11.67;10.67;;;9.20;99.90;;;;;;5273592;27;20333;-79
2024/04/24 10:26:36;;;;;;;11.60;10.70;;;9.10;99.90;;;;;;5292320;27;20241;-79
2024/04/24 10:29:06;;;;;;;10.80;10.00;;;9.00;99.90;;;;;;5278004;27;20656;-79
2024/04/24 10:31:35;;;;;;;11.67;10.67;;;9.00;99.90;;;;;;5277351;27;20260;-79
2024/04/24 10:34:06;;;;;;;11.13;10.10;;;9.00;99.90;;;;;;5290946;27;20733;-79
2024/04/24 10:36:34;;;;;;;11.97;10.97;;;8.80;99.90;;;;;;5282206;27;20314;-79
2024/04/24 10:39:07;;;;;;;11.50;10.63;;;8.70;99.90;;;;;;5276870;27;20350;-79
2024/04/24 10:41:39;;;;;;;12.70;11.73;;;8.40;99.90;;;;;;5276416;27;20719;-79
2024/04/24 10:44:10;;;;;;;12.57;11.47;;;8.30;99.90;;;;;;5276770;27;20596;-79
2024/04/24 10:46:40;;;;;;;12.07;11.07;;;8.20;99.90;;;;;;5277262;27;20241;-79
2024/04/24 10:49:09;;;;;;;11.77;10.77;;;8.20;99.90;;;;;;5276186;27;20245;-79
2024/04/24 10:51:40;;;;;;;12.17;11.07;;;8.20;99.90;;;;;;5275879;27;20252;-77
2024/04/24 10:54:17;;;;;;;12.80;11.80;;;8.10;99.90;;;;;;5285780;27;20630;-79
2024/04/24 10:56:53;;;;;;;13.47;12.37;;;8.10;99.90;;;;;;5276553;27;20241;-79
2024/04/24 10:59:32;;;;;;;12.67;11.67;;;8.00;99.90;;;;;;5277991;27;20241;-79
2024/04/24 11:02:10;;;;;;;12.57;11.37;;;8.10;99.90;;;;;;5297474;27;20669;-79
2024/04/24 11:04:39;;;;;;;11.93;11.03;;;8.20;99.90;;;;;;5272170;27;20241;-81
2024/04/24 11:07:08;;;;;;;13.10;12.10;;;8.30;99.90;;;;;;5278623;27;20278;-82
2024/04/24 11:09:38;;;;;;;15.67;11.30;;;8.30;99.90;;;;;;5276760;27;20759;-82
2024/04/24 11:12:11;;;;;;;11.93;11.03;;;8.40;99.90;;;;;;5279206;27;20237;-82
2024/04/24 11:14:43;;;;;;;11.77;10.87;;;8.50;99.90;;;;;;5276776;27;20339;-81
2024/04/24 11:17:12;;;;;;;11.73;10.87;;;8.60;99.90;;;;;;5277741;27;20249;-82
2024/04/24 11:19:40;;;;;;;11.70;10.80;;;8.70;99.90;;;;;;5278317;27;20244;-82
2024/04/24 11:22:09;;;;;;;12.23;11.23;;;8.90;99.90;;;;;;5279644;27;20237;-82
2024/04/24 11:24:37;;;;;;;12.30;11.40;;;9.20;99.90;;;;;;5279431;27;20348;-82
2024/04/24 11:27:08;;;;;;;12.73;11.83;;;9.50;99.90;;;;;;5278874;27;20378;-82
2024/04/24 11:29:38;;;;;;;12.60;11.60;;;9.70;99.90;;;;;;5277279;27;20233;-82
2024/04/24 11:32:08;;;;;;;12.50;11.50;;;9.60;99.90;;;;;;5277200;27;20329;-80
2024/04/24 11:34:38;;;;;;;12.33;11.30;;;9.50;99.90;;;;;;5277763;27;20290;-81
2024/04/24 11:37:07;;;;;;;12.50;11.50;;;9.30;99.90;;;;;;5277805;27;20886;-80
2024/04/24 11:39:35;;;;;;;11.97;11.07;;;9.10;99.90;;;;;;5277211;27;20232;-80
2024/04/24 11:42:04;;;;;;;12.27;11.37;;;8.90;99.90;;;;;;5270585;27;20724;-81
2024/04/24 11:44:35;;;;;;;12.17;11.17;;;8.80;99.90;;;;;;5277587;27;20385;-82
2024/04/24 11:47:04;;;;;;;11.83;10.93;;;8.80;99.90;;;;;;5284281;26;20579;-79
2024/04/24 11:49:33;;;;;;;12.33;11.23;;;8.80;99.90;;;;;;5270617;27;20621;-78
2024/04/24 11:52:01;;;;;;;11.40;10.60;;;8.80;99.90;;;;;;5277078;27;20324;-79
2024/04/24 11:54:30;;;;;;;11.10;10.30;;;9.00;99.90;;;;;;5285848;27;20345;-79
2024/04/24 11:57:02;;;;;;;12.33;11.23;;;9.20;99.90;;;;;;5285859;27;20277;-78
2024/04/24 11:59:29;;;;;;;12.73;11.43;;;9.40;99.90;;;;;;5277326;27;20272;-79
2024/04/24 12:02:00;;;;;;;11.20;10.40;;;9.70;99.90;;;;;;5278169;27;20242;-79
2024/04/24 12:04:29;;;;;;;10.17;9.47;;;9.90;99.90;;;;;;5277962;27;20819;-78
2024/04/24 12:06:57;;;;;;;11.30;10.50;;;10.20;99.90;;;;;;5277680;27;20235;-78
2024/04/24 12:09:26;;;;;;;11.27;10.47;;;10.40;99.90;;;;;;5275647;27;20248;-78
2024/04/24 12:11:55;;;;;;;10.03;9.23;;;10.50;99.90;;;;;;5276400;27;20468;-79
2024/04/24 12:14:24;;;;;;;10.57;9.77;;;10.70;99.90;;;;;;5275700;27;20247;-79
2024/04/24 12:16:52;;;;;;;12.23;11.03;;;10.90;99.90;;;;;;5277774;27;20229;-79
2024/04/24 12:19:23;;;;;;;10.67;9.80;;;10.90;99.90;;;;;;5275280;27;20338;-78
2024/04/24 12:21:52;;;;;;;10.30;9.50;;;11.10;99.90;;;;;;5272646;27;20580;-79
2024/04/24 12:24:22;;;;;;;7.93;7.33;;;11.40;99.90;;;;;;5276433;27;20264;-79
2024/04/24 12:26:51;;;;;;;11.70;10.83;;;11.50;99.90;;;;;;5277132;27;20237;-78
2024/04/24 12:29:19;;;;;;;7.30;6.70;;;11.50;99.90;;;;;;5276034;27;20232;-80
2024/04/24 12:31:48;;;;;;;10.90;10.10;;;11.70;99.90;;;;;;5277516;27;20237;-83
2024/04/24 12:34:18;;;;;;;10.17;9.47;;;11.70;99.90;;;;;;5279288;27;20362;-84
2024/04/24 12:36:51;;;;;;;10.23;9.43;;;11.90;99.90;;;;;;5283188;27;20284;-84
2024/04/24 12:39:19;;;;;;;10.10;9.40;;;12.00;99.90;;;;;;5263977;27;20284;-81
2024/04/24 12:41:48;;;;;;;10.17;9.47;;;12.00;99.90;;;;;;5279562;27;20279;-82
2024/04/24 12:44:18;;;;;;;9.63;8.93;;;12.20;99.90;;;;;;5280676;27;20248;-77
2024/04/24 12:46:47;;;;;;;9.80;8.80;;;12.40;99.90;;;;;;5282876;27;20347;-77
2024/04/24 12:49:16;;;;;;;10.10;9.30;;;12.50;99.90;;;;;;5277893;27;20237;-78
2024/04/24 12:51:44;;;;;;;9.83;9.13;;;12.70;99.90;;;;;;5279711;27;20758;-78